Terminal Aerodrome Forecast
Issued by NWS

Home | Current Version | Previous Version | Text Only | Print | Product List | Glossary On
Versions: 1 2 3 4 5 6 7 8 9 10 11 12 13 14 15 16 17 18 19 20 21 22 23 24 25 26 27 28
000
FTUS45 KGJT 290527
TAFRIL
TAF
KRIL 290527Z 2906/3006 32004KT P6SM SKC
     FM290800 VRB03KT P6SM FEW250
     FM291600 17006KT P6SM FEW250
     FM291800 29012G20KT P6SM FEW250
     FM292000 28018G29KT P6SM SCT200
     FM300200 28009KT P6SM SCT150
     FM300400 VRB03KT P6SM SCT150=

USA.gov is the U.S. government's official web portal to all federal, state and local government web resources and services.